createdAt,value
2022-08-14T00:02:27.125Z,59.50
2022-08-14T00:04:55.429Z,59.59
2022-08-14T00:07:23.058Z,59.80
2022-08-14T00:09:55.813Z,59.67
2022-08-14T00:12:39.491Z,60.16
2022-08-14T00:15:18.460Z,60.00
2022-08-14T00:17:52.929Z,60.16
2022-08-14T00:20:35.939Z,60.39
2022-08-14T00:23:16.765Z,60.41
2022-08-14T00:25:53.894Z,60.65
2022-08-14T00:28:35.345Z,60.82
2022-08-14T00:31:05.310Z,60.88
2022-08-14T00:33:50.442Z,61.24
2022-08-14T00:36:36.955Z,61.27
2022-08-14T00:39:09.487Z,61.59
2022-08-14T00:41:39.004Z,61.43
2022-08-14T00:44:08.265Z,61.71
2022-08-14T00:46:38.548Z,61.80
2022-08-14T00:49:11.552Z,61.99
2022-08-14T00:51:44.273Z,62.19
2022-08-14T00:54:21.229Z,62.20
2022-08-14T00:56:55.445Z,62.12
2022-08-14T00:59:26.026Z,62.48
2022-08-14T01:02:00.583Z,62.95
2022-08-14T01:04:51.165Z,62.68
2022-08-14T01:07:21.992Z,63.02
2022-08-14T01:09:54.881Z,63.12
2022-08-14T01:12:27.029Z,63.16
2022-08-14T01:14:59.242Z,63.33
2022-08-14T01:17:49.875Z,63.45
2022-08-14T01:20:39.872Z,63.53
2022-08-14T01:23:18.873Z,63.69
2022-08-14T01:25:51.859Z,63.89
2022-08-14T01:28:46.650Z,63.91
2022-08-14T01:31:14.343Z,63.97
2022-08-14T01:35:16.110Z,64.16
2022-08-14T01:36:39.253Z,64.20
2022-08-14T01:39:18.701Z,64.33
2022-08-14T01:42:01.426Z,64.11
2022-08-14T01:44:33.721Z,64.18
2022-08-14T01:47:16.487Z,64.34
2022-08-14T01:49:59.873Z,64.16
2022-08-14T01:52:59.293Z,64.45
2022-08-14T01:55:23.315Z,64.46
2022-08-14T01:58:01.595Z,64.43
2022-08-14T02:00:39.564Z,64.52
2022-08-14T02:03:07.606Z,64.51
2022-08-14T02:05:38.624Z,64.90
2022-08-14T02:08:09.577Z,65.01
2022-08-14T02:10:46.239Z,65.18
2022-08-14T02:13:16.832Z,65.14
2022-08-14T02:15:45.806Z,65.36
2022-08-14T02:18:16.478Z,65.32
2022-08-14T02:20:47.588Z,65.50
2022-08-14T02:23:16.591Z,65.45
2022-08-14T02:25:59.604Z,65.49
2022-08-14T02:28:59.349Z,65.74
2022-08-14T02:31:42.516Z,65.68
2022-08-14T02:34:32.716Z,65.87
2022-08-14T02:37:12.198Z,65.93
2022-08-14T02:39:46.075Z,65.97
2022-08-14T02:42:23.626Z,66.35
2022-08-14T02:45:06.612Z,66.39
2022-08-14T02:47:34.307Z,66.52
2022-08-14T02:50:07.330Z,66.56
2022-08-14T02:53:07.399Z,66.70
2022-08-14T02:55:23.570Z,67.03
2022-08-14T02:57:58.147Z,67.04
2022-08-14T03:00:33.175Z,67.22
2022-08-14T03:03:07.611Z,67.48
2022-08-14T03:05:41.339Z,67.65
2022-08-14T03:08:16.007Z,67.50
2022-08-14T03:10:49.118Z,67.82
2022-08-14T03:13:21.628Z,68.04
2022-08-14T03:15:57.840Z,68.08
2022-08-14T03:18:30.896Z,68.09
2022-08-14T03:21:02.594Z,68.25
2022-08-14T03:23:37.815Z,68.47
2022-08-14T03:26:08.742Z,68.60
2022-08-14T03:28:43.081Z,68.63
2022-08-14T03:31:13.217Z,68.83
2022-08-14T03:33:42.313Z,68.77
2022-08-14T03:37:50.883Z,69.14
2022-08-14T03:39:11.889Z,68.91
2022-08-14T03:41:54.120Z,69.16
2022-08-14T03:45:20.111Z,69.19
2022-08-14T03:47:11.727Z,68.99
2022-08-14T03:49:42.315Z,69.22
2022-08-14T03:52:38.453Z,69.52
2022-08-14T03:54:59.332Z,69.30
2022-08-14T03:57:30.648Z,69.46
2022-08-14T03:59:59.854Z,69.43
2022-08-14T04:02:33.350Z,69.60
2022-08-14T04:05:11.759Z,69.70
2022-08-14T04:07:50.043Z,69.74
2022-08-14T04:10:31.589Z,69.71
2022-08-14T04:13:06.218Z,69.90
2022-08-14T04:15:56.208Z,69.66
2022-08-14T04:18:22.027Z,69.90
2022-08-14T04:20:54.619Z,70.07
2022-08-14T04:23:29.719Z,70.07
2022-08-14T04:26:02.403Z,70.27
2022-08-14T04:29:07.861Z,70.30
2022-08-14T04:32:59.092Z,70.38
2022-08-14T04:34:07.848Z,70.34
2022-08-14T04:36:55.647Z,70.49
2022-08-14T04:39:46.530Z,70.46
2022-08-14T04:42:32.941Z,70.36
2022-08-14T04:45:01.302Z,70.56
2022-08-14T04:47:47.627Z,70.81
2022-08-14T04:50:26.193Z,70.99
2022-08-14T04:53:05.500Z,71.05
2022-08-14T04:55:33.771Z,71.04
2022-08-14T04:58:03.693Z,71.26
2022-08-14T05:00:34.166Z,71.27
2022-08-14T05:03:03.568Z,71.75
2022-08-14T05:05:35.249Z,71.77
2022-08-14T05:08:32.292Z,71.81
2022-08-14T05:11:03.111Z,71.93
2022-08-14T05:13:53.228Z,72.11
2022-08-14T05:16:23.177Z,72.20
2022-08-14T05:19:24.921Z,72.14
2022-08-14T05:21:57.442Z,72.42
2022-08-14T05:24:29.206Z,72.75
2022-08-14T05:26:56.825Z,72.70
2022-08-14T05:29:25.456Z,72.66
2022-08-14T05:31:58.065Z,72.94
2022-08-14T05:34:31.824Z,73.24
2022-08-14T05:37:02.850Z,73.06
2022-08-14T05:39:31.789Z,73.51
2022-08-14T05:42:00.568Z,73.64
2022-08-14T05:44:30.898Z,73.69
2022-08-14T05:46:59.218Z,74.10
2022-08-14T05:49:33.320Z,74.20
2022-08-14T05:52:02.990Z,74.08
2022-08-14T05:54:35.233Z,73.78
2022-08-14T05:57:05.016Z,73.27
2022-08-14T05:59:39.248Z,73.69
2022-08-14T06:02:10.001Z,73.42
2022-08-14T06:04:39.314Z,73.34
2022-08-14T06:07:06.995Z,73.31
2022-08-14T06:09:35.776Z,73.40
2022-08-14T06:12:12.114Z,73.12
2022-08-14T06:14:39.881Z,72.98
2022-08-14T06:17:07.444Z,72.71
2022-08-14T06:19:35.053Z,72.79
2022-08-14T06:22:02.852Z,72.42
2022-08-14T06:24:34.700Z,72.17
2022-08-14T06:27:06.370Z,72.18
2022-08-14T06:29:39.122Z,71.93
2022-08-14T06:32:37.716Z,71.90
2022-08-14T06:35:04.018Z,71.93
2022-08-14T06:37:48.935Z,71.82
2022-08-14T06:40:34.611Z,71.54
2022-08-14T06:43:03.866Z,71.70
2022-08-14T06:45:32.636Z,71.70
2022-08-14T06:48:02.950Z,71.80
2022-08-14T06:50:34.029Z,71.96
2022-08-14T06:53:01.566Z,72.09
2022-08-14T06:55:29.724Z,72.14
2022-08-14T06:57:57.827Z,72.08
2022-08-14T07:00:30.922Z,72.08
2022-08-14T07:03:19.269Z,72.24
2022-08-14T07:05:57.680Z,72.05
2022-08-14T07:08:31.086Z,71.91
2022-08-14T07:11:01.420Z,72.06
2022-08-14T07:13:30.736Z,71.92
2022-08-14T07:16:00.675Z,71.86
2022-08-14T07:18:35.475Z,71.77
2022-08-14T07:21:05.409Z,71.89
2022-08-14T07:23:40.116Z,71.48
2022-08-14T07:26:13.630Z,71.28
2022-08-14T07:28:43.534Z,70.86
2022-08-14T07:31:12.640Z,70.73
2022-08-14T07:33:50.138Z,70.90
2022-08-14T07:36:29.921Z,70.40
2022-08-14T07:39:03.277Z,70.45
2022-08-14T07:41:39.909Z,70.03
2022-08-14T07:44:32.869Z,69.71
2022-08-14T07:46:59.206Z,69.36
2022-08-14T07:49:27.637Z,68.95
2022-08-14T07:51:56.878Z,68.88
2022-08-14T07:54:29.843Z,68.81
2022-08-14T07:57:00.521Z,68.44
2022-08-14T07:59:40.947Z,68.05
2022-08-14T08:02:18.087Z,67.39
2022-08-14T08:04:58.987Z,67.21
2022-08-14T08:07:31.041Z,66.13
2022-08-14T08:10:46.350Z,65.68
2022-08-14T08:13:15.537Z,65.10
2022-08-14T08:15:46.467Z,65.44
2022-08-14T08:18:20.526Z,65.15
2022-08-14T08:20:59.492Z,64.91
2022-08-14T08:23:40.624Z,65.20
2022-08-14T08:26:11.349Z,65.15
2022-08-14T08:28:39.404Z,65.35
2022-08-14T08:31:12.837Z,65.21
2022-08-14T08:33:42.613Z,65.16
2022-08-14T08:36:18.573Z,65.10
2022-08-14T08:39:16.919Z,64.59
2022-08-14T08:41:50.488Z,63.39
2022-08-14T08:44:32.075Z,62.64
2022-08-14T08:47:08.127Z,61.34
2022-08-14T08:49:48.198Z,59.79
2022-08-14T08:52:31.970Z,59.09
2022-08-14T08:55:04.306Z,57.51
2022-08-14T08:57:37.731Z,55.89
2022-08-14T09:00:24.356Z,53.99
2022-08-14T09:03:02.185Z,52.16
2022-08-14T09:05:30.682Z,50.52
2022-08-14T09:08:31.433Z,48.54
2022-08-14T09:11:19.735Z,47.33
2022-08-14T09:13:53.113Z,45.73
2022-08-14T09:16:26.099Z,44.22
2022-08-14T09:18:55.980Z,42.88
2022-08-14T09:21:24.909Z,42.76
2022-08-14T09:24:28.922Z,41.97
2022-08-14T09:26:49.392Z,41.04
2022-08-14T09:29:22.840Z,39.85
2022-08-14T09:31:57.325Z,39.61
2022-08-14T09:34:28.489Z,38.82
2022-08-14T09:37:07.995Z,37.82
2022-08-14T09:40:16.650Z,36.88
2022-08-14T09:42:59.861Z,36.90
2022-08-14T09:45:53.089Z,36.23
2022-08-14T09:48:29.975Z,36.33
2022-08-14T09:54:18.290Z,35.64
2022-08-14T09:56:45.805Z,34.65
2022-08-14T09:59:16.709Z,33.94
2022-08-14T10:01:46.141Z,33.43
2022-08-14T10:04:34.942Z,32.85
2022-08-14T10:07:08.193Z,32.48
2022-08-14T10:10:00.220Z,32.95
2022-08-14T10:12:44.859Z,33.31
2022-08-14T10:15:21.107Z,32.63
2022-08-14T10:17:49.774Z,32.36
2022-08-14T10:20:40.684Z,32.00
2022-08-14T10:23:22.076Z,31.47
2022-08-14T10:25:57.983Z,31.43
2022-08-14T10:29:03.901Z,31.09
2022-08-14T10:31:44.487Z,30.65
2022-08-14T10:34:18.615Z,29.90
2022-08-14T10:37:02.449Z,29.98
2022-08-14T10:39:30.474Z,30.37
2022-08-14T10:42:16.615Z,29.42
2022-08-14T10:44:52.633Z,29.24
2022-08-14T10:47:39.514Z,29.05
2022-08-14T10:50:12.077Z,28.97
2022-08-14T10:52:43.231Z,28.73
2022-08-14T10:55:14.287Z,28.46
2022-08-14T10:57:57.040Z,28.03
2022-08-14T11:00:30.336Z,28.11
2022-08-14T11:03:11.205Z,28.27
2022-08-14T11:05:55.713Z,28.02
2022-08-14T11:08:41.900Z,27.62
2022-08-14T11:11:13.722Z,27.77
2022-08-14T11:13:46.523Z,27.62
2022-08-14T11:16:16.062Z,27.66
2022-08-14T11:18:50.727Z,27.50
2022-08-14T11:21:23.421Z,27.56
2022-08-14T11:23:53.637Z,27.42
2022-08-14T11:26:30.154Z,26.86
2022-08-14T11:29:00.316Z,27.09
2022-08-14T11:31:35.568Z,26.38
2022-08-14T11:34:10.456Z,26.27
2022-08-14T11:37:02.144Z,27.03
2022-08-14T11:39:37.756Z,27.44
2022-08-14T11:42:07.658Z,26.81
2022-08-14T11:45:11.402Z,26.77
2022-08-14T11:48:13.749Z,26.71
2022-08-14T11:50:37.935Z,26.27
2022-08-14T11:53:08.814Z,26.29
2022-08-14T11:55:39.158Z,27.01
2022-08-14T11:58:10.614Z,27.37
2022-08-14T12:00:53.696Z,27.27
2022-08-14T12:03:27.034Z,27.06
2022-08-14T12:06:29.043Z,26.62
2022-08-14T12:09:08.804Z,26.50
2022-08-14T12:11:46.903Z,25.97
2022-08-14T12:14:34.872Z,25.63
2022-08-14T12:17:11.928Z,25.67
2022-08-14T12:19:51.318Z,25.50
2022-08-14T12:22:40.020Z,25.54
2022-08-14T12:25:14.725Z,25.64
2022-08-14T12:27:53.416Z,26.10
2022-08-14T12:30:43.581Z,26.22
2022-08-14T12:33:30.735Z,26.38
2022-08-14T12:36:04.141Z,26.62
2022-08-14T12:38:43.483Z,26.48
2022-08-14T12:41:20.553Z,26.87
2022-08-14T12:44:01.957Z,27.02
2022-08-14T12:46:35.890Z,27.29
2022-08-14T12:49:25.971Z,26.99
2022-08-14T12:51:59.036Z,26.22
2022-08-14T12:54:28.969Z,25.92
2022-08-14T12:57:08.190Z,25.89
2022-08-14T12:59:37.114Z,25.85
2022-08-14T13:02:25.454Z,25.74
2022-08-14T13:04:56.630Z,25.68
2022-08-14T13:07:32.778Z,25.19
2022-08-14T13:10:46.022Z,25.13
2022-08-14T13:13:12.629Z,24.81
2022-08-14T13:15:40.576Z,25.28
2022-08-14T13:18:13.084Z,25.61
2022-08-14T13:20:48.036Z,25.84
2022-08-14T13:23:30.375Z,26.89
2022-08-14T13:26:00.301Z,27.16
2022-08-14T13:28:32.716Z,27.78
2022-08-14T13:31:11.220Z,28.60
2022-08-14T13:33:40.672Z,28.98
2022-08-14T13:36:11.081Z,29.64
2022-08-14T13:38:53.775Z,30.28
2022-08-14T13:41:28.086Z,30.80
2022-08-14T13:44:04.653Z,30.69
2022-08-14T13:46:35.728Z,31.75
2022-08-14T13:49:04.294Z,31.63
2022-08-14T13:51:38.627Z,32.07
2022-08-14T13:54:10.271Z,31.75
2022-08-14T13:56:40.938Z,31.96
2022-08-14T13:59:10.323Z,31.28
2022-08-14T14:01:43.990Z,32.21
2022-08-14T14:04:19.801Z,32.62
2022-08-14T14:06:52.168Z,33.45
2022-08-14T14:09:32.704Z,33.22
2022-08-14T14:12:36.738Z,33.88
2022-08-14T14:14:56.878Z,33.53
2022-08-14T14:17:29.018Z,33.51
2022-08-14T14:19:59.772Z,33.32
2022-08-14T14:22:35.630Z,33.41
2022-08-14T14:25:04.102Z,33.18
2022-08-14T14:27:41.555Z,33.67
2022-08-14T14:30:46.004Z,33.75
2022-08-14T14:33:05.322Z,34.38
2022-08-14T14:35:43.448Z,34.57
2022-08-14T14:38:17.112Z,34.85
2022-08-14T14:40:52.629Z,34.98
2022-08-14T14:43:25.096Z,35.14
2022-08-14T14:45:55.687Z,35.19
2022-08-14T14:48:28.266Z,35.28
2022-08-14T14:51:01.582Z,35.23
2022-08-14T14:53:39.220Z,34.39
2022-08-14T14:56:47.570Z,34.72
2022-08-14T14:58:58.378Z,34.61
2022-08-14T15:01:26.578Z,34.81
2022-08-14T15:03:55.534Z,34.57
2022-08-14T15:06:30.243Z,34.72
2022-08-14T15:09:00.925Z,35.03
2022-08-14T15:11:30.134Z,34.87
2022-08-14T15:13:58.830Z,34.55
2022-08-14T15:16:28.532Z,34.26
2022-08-14T15:18:56.127Z,34.25
2022-08-14T15:21:25.276Z,34.24
2022-08-14T15:23:55.397Z,34.23
2022-08-14T15:26:31.901Z,34.04
2022-08-14T15:29:05.835Z,33.50
2022-08-14T15:31:36.614Z,33.27
2022-08-14T15:34:43.445Z,33.30
2022-08-14T15:37:00.295Z,33.57
2022-08-14T15:39:33.784Z,33.73
2022-08-14T15:42:14.653Z,33.75
2022-08-14T15:44:58.414Z,34.12
2022-08-14T15:47:31.592Z,34.15
2022-08-14T15:50:04.371Z,34.25
2022-08-14T15:52:37.183Z,34.97
2022-08-14T15:55:09.406Z,35.42
2022-08-14T15:57:37.564Z,35.72
2022-08-14T16:00:43.658Z,35.92
2022-08-14T16:03:16.527Z,36.97
2022-08-14T16:05:46.125Z,37.81
2022-08-14T16:08:27.063Z,37.47
2022-08-14T16:11:01.136Z,37.66
2022-08-14T16:13:39.276Z,38.31
2022-08-14T16:16:47.855Z,38.48
2022-08-14T16:19:07.416Z,39.31
2022-08-14T16:21:39.939Z,39.73
2022-08-14T16:24:27.936Z,40.06
2022-08-14T16:27:00.763Z,39.67
2022-08-14T16:29:34.596Z,39.61
2022-08-14T16:32:32.873Z,39.28
2022-08-14T16:34:54.963Z,39.06
2022-08-14T16:37:30.540Z,39.11
2022-08-14T16:40:00.728Z,38.71
2022-08-14T16:42:39.343Z,38.62
2022-08-14T16:45:18.744Z,37.96
2022-08-14T16:47:47.845Z,36.08
2022-08-14T16:50:40.467Z,35.66
2022-08-14T16:53:07.361Z,35.95
2022-08-14T16:55:53.491Z,35.08
2022-08-14T16:58:29.859Z,35.33
2022-08-14T17:01:16.270Z,35.64
2022-08-14T17:04:04.654Z,35.10
2022-08-14T17:06:51.142Z,35.26
2022-08-14T17:09:32.974Z,35.11
2022-08-14T17:12:28.608Z,35.56
2022-08-14T17:15:11.168Z,35.76
2022-08-14T17:17:38.786Z,35.92
2022-08-14T17:20:53.902Z,36.12
2022-08-14T17:23:00.185Z,36.47
2022-08-14T17:25:30.112Z,36.95
2022-08-14T17:28:50.632Z,37.04
2022-08-14T17:31:07.014Z,36.86
2022-08-14T17:36:25.365Z,37.17
2022-08-14T17:39:06.702Z,36.81
2022-08-14T17:41:43.580Z,37.49
2022-08-14T17:44:14.639Z,37.88
2022-08-14T17:46:55.199Z,38.36
2022-08-14T17:49:40.419Z,38.38
2022-08-14T17:52:33.873Z,38.43
2022-08-14T17:55:05.329Z,38.88
2022-08-14T17:57:35.195Z,39.06
2022-08-14T18:00:13.184Z,39.27
2022-08-14T18:02:50.371Z,39.14
2022-08-14T18:05:23.185Z,39.29
2022-08-14T18:08:31.406Z,39.27
2022-08-14T18:10:55.006Z,39.33
2022-08-14T18:13:49.840Z,39.11
2022-08-14T18:16:20.553Z,39.32
2022-08-14T18:18:51.122Z,39.54
2022-08-14T18:21:39.879Z,39.46
2022-08-14T18:24:20.411Z,39.52
2022-08-14T18:27:22.846Z,40.01
2022-08-14T18:29:55.724Z,39.84
2022-08-14T18:32:32.666Z,39.73
2022-08-14T18:35:11.030Z,40.05
2022-08-14T18:37:42.262Z,40.45
2022-08-14T18:40:34.533Z,40.83
2022-08-14T18:43:03.905Z,41.27
2022-08-14T18:45:33.948Z,41.39
2022-08-14T18:48:18.567Z,42.07
2022-08-14T18:50:52.582Z,42.36
2022-08-14T18:53:24.898Z,42.63
2022-08-14T18:56:09.842Z,42.83
2022-08-14T18:58:59.009Z,43.43
2022-08-14T19:01:33.281Z,43.09
2022-08-14T19:04:02.303Z,43.44
2022-08-14T19:06:40.303Z,43.32
2022-08-14T19:09:08.895Z,42.59
2022-08-14T19:11:37.603Z,42.94
2022-08-14T19:14:07.026Z,42.92
2022-08-14T19:16:37.230Z,43.38
2022-08-14T19:19:13.164Z,43.18
2022-08-14T19:22:01.963Z,44.70
2022-08-14T19:24:43.941Z,45.42
2022-08-14T19:27:24.773Z,45.74
2022-08-14T19:30:20.081Z,46.57
2022-08-14T19:32:53.081Z,46.48
2022-08-14T19:35:55.100Z,46.28
2022-08-14T19:38:47.859Z,46.33
2022-08-14T19:41:29.356Z,46.30
2022-08-14T19:44:15.382Z,46.74
2022-08-14T19:47:01.041Z,47.12
2022-08-14T19:50:08.397Z,46.82
2022-08-14T19:52:29.682Z,47.02
2022-08-14T19:54:59.745Z,47.23
2022-08-14T19:57:30.898Z,48.07
2022-08-14T20:00:28.255Z,47.94
2022-08-14T20:03:11.338Z,48.03
2022-08-14T20:05:43.169Z,47.83
2022-08-14T20:10:59.869Z,48.21
2022-08-14T20:11:41.596Z,48.08
2022-08-14T20:14:11.657Z,48.56
2022-08-14T20:17:01.929Z,48.75
2022-08-14T20:19:37.937Z,48.81
2022-08-14T20:22:36.784Z,48.82
2022-08-14T20:25:37.625Z,49.26
2022-08-14T20:28:29.052Z,49.88
2022-08-14T20:31:18.764Z,50.05
2022-08-14T20:34:24.659Z,50.43
2022-08-14T20:37:09.553Z,50.34
2022-08-14T20:39:54.285Z,50.34
2022-08-14T20:42:43.620Z,50.57
2022-08-14T20:45:20.004Z,51.28
2022-08-14T20:48:07.246Z,52.34
2022-08-14T20:50:45.139Z,52.28
2022-08-14T20:53:26.617Z,52.43
2022-08-14T20:56:00.534Z,52.19
2022-08-14T20:58:44.364Z,52.61
2022-08-14T21:01:12.245Z,52.87
2022-08-14T21:03:56.400Z,52.79
2022-08-14T21:07:23.449Z,52.94
2022-08-14T21:09:43.698Z,53.49
2022-08-14T21:12:33.830Z,53.58
2022-08-14T21:15:11.020Z,53.89
2022-08-14T21:17:41.547Z,54.31
2022-08-14T21:20:25.953Z,54.50
2022-08-14T21:22:56.627Z,54.96
2022-08-14T21:25:29.070Z,54.80
2022-08-14T21:28:04.688Z,55.23
2022-08-14T21:30:41.859Z,55.42
2022-08-14T21:33:15.833Z,55.52
2022-08-14T21:35:47.356Z,55.49
2022-08-14T21:38:18.037Z,55.62
2022-08-14T21:40:51.537Z,55.71
2022-08-14T21:43:22.326Z,55.74
2022-08-14T21:45:55.850Z,55.82
2022-08-14T21:48:29.254Z,55.77
2022-08-14T21:51:54.430Z,55.94
2022-08-14T21:53:59.232Z,56.23
2022-08-14T21:56:37.399Z,56.49
2022-08-14T21:59:18.061Z,56.51
2022-08-14T22:02:00.515Z,56.42
2022-08-14T22:04:40.367Z,56.68
2022-08-14T22:07:16.619Z,56.76
2022-08-14T22:09:54.689Z,56.91
2022-08-14T22:12:58.369Z,57.05
2022-08-14T22:15:15.730Z,57.64
2022-08-14T22:17:45.518Z,57.57
2022-08-14T22:20:20.801Z,57.85
2022-08-14T22:22:48.546Z,57.72
2022-08-14T22:25:33.415Z,57.70
2022-08-14T22:28:12.253Z,58.23
2022-08-14T22:30:41.745Z,59.51
2022-08-14T22:33:09.957Z,61.60
2022-08-14T22:35:41.199Z,63.17
2022-08-14T22:38:36.243Z,64.82
2022-08-14T22:41:25.650Z,65.05
2022-08-14T22:43:51.761Z,66.28
2022-08-14T22:46:21.432Z,66.99
2022-08-14T22:48:49.912Z,67.76
2022-08-14T22:51:20.637Z,68.06
2022-08-14T22:53:52.371Z,68.78
2022-08-14T22:56:30.249Z,68.82
2022-08-14T22:59:01.314Z,69.00
2022-08-14T23:01:55.566Z,69.46
2022-08-14T23:04:34.113Z,70.20
2022-08-14T23:07:07.482Z,70.00
2022-08-14T23:09:56.389Z,70.32
2022-08-14T23:12:34.802Z,70.80
2022-08-14T23:15:03.887Z,70.64
2022-08-14T23:17:39.475Z,70.87
2022-08-14T23:20:18.805Z,70.96
2022-08-14T23:22:51.806Z,70.81
2022-08-14T23:25:57.366Z,70.75
2022-08-14T23:28:33.634Z,70.40
2022-08-14T23:31:08.180Z,70.46
2022-08-14T23:33:45.710Z,70.65
2022-08-14T23:36:31.678Z,70.75
2022-08-14T23:39:00.426Z,70.99
2022-08-14T23:41:46.203Z,71.08
2022-08-14T23:44:16.273Z,71.38
2022-08-14T23:46:44.156Z,71.11
2022-08-14T23:49:12.539Z,71.17
2022-08-14T23:51:40.240Z,70.65
2022-08-14T23:54:48.257Z,70.93
2022-08-14T23:57:03.130Z,70.72
2022-08-14T23:59:32.423Z,70.62
